createdAt,value
2023-03-03T00:06:02.462Z,1.37
2023-03-03T00:21:07.486Z,1.31
2023-03-03T00:36:12.470Z,1.31
2023-03-03T00:51:17.485Z,1.31
2023-03-03T01:06:22.465Z,1.31
2023-03-03T01:21:27.469Z,1.31
2023-03-03T01:36:32.480Z,1.31
2023-03-03T01:51:37.491Z,1.31
2023-03-03T02:06:42.534Z,1.31
2023-03-03T02:21:47.555Z,1.31
2023-03-03T02:36:52.536Z,1.31
2023-03-03T02:51:57.616Z,1.31
2023-03-03T03:07:02.572Z,1.31
2023-03-03T03:22:07.573Z,1.31
2023-03-03T03:37:12.605Z,1.25
2023-03-03T03:52:17.584Z,1.25
2023-03-03T04:07:22.690Z,1.25
2023-03-03T04:22:27.627Z,1.25
2023-03-03T04:37:32.643Z,1.25
2023-03-03T04:52:37.653Z,1.25
2023-03-03T05:07:42.650Z,1.25
2023-03-03T05:22:47.679Z,1.25
2023-03-03T05:37:52.715Z,1.18
2023-03-03T05:52:57.682Z,1.18
2023-03-03T06:08:02.754Z,1.18
2023-03-03T06:23:07.715Z,1.18
2023-03-03T06:38:12.758Z,1.18
2023-03-03T06:53:17.713Z,1.18
2023-03-03T07:08:22.854Z,1.18
2023-03-03T07:23:27.782Z,1.18
2023-03-03T07:38:32.812Z,1.18
2023-03-03T07:53:37.810Z,1.18
2023-03-03T08:08:42.824Z,1.25
2023-03-03T08:38:52.832Z,1.25
2023-03-03T08:53:58.344Z,1.25
2023-03-03T09:09:02.835Z,1.25
2023-03-03T09:24:07.842Z,1.25
2023-03-03T09:39:12.886Z,1.31
2023-03-03T09:54:17.859Z,1.31
2023-03-03T10:09:22.910Z,1.37
2023-03-03T10:24:27.989Z,1.37
2023-03-03T10:39:32.927Z,1.43
2023-03-03T10:54:35.994Z,1.5
2023-03-03T11:09:40.930Z,1.5
2023-03-03T11:24:45.918Z,1.56
2023-03-03T11:39:50.959Z,1.62
2023-03-03T11:54:55.952Z,1.62
2023-03-03T12:10:00.970Z,1.6800000000000002
2023-03-03T12:25:05.977Z,1.75
2023-03-03T12:40:08.968Z,1.81
2023-03-03T12:55:13.969Z,1.81
2023-03-03T13:10:19.025Z,1.87
2023-03-03T13:25:24.074Z,1.9300000000000002
2023-03-03T13:40:28.973Z,2
2023-03-03T13:55:34.000Z,2
2023-03-03T14:10:39.025Z,2.06
2023-03-03T14:25:44.011Z,2.12
2023-03-03T14:40:49.040Z,2.12
2023-03-03T14:55:54.065Z,2.12
2023-03-03T15:10:59.038Z,2.12
2023-03-03T15:26:04.054Z,2.12
2023-03-03T15:41:09.062Z,2.12
2023-03-03T15:56:14.081Z,2.06
2023-03-03T16:11:19.094Z,2.06
2023-03-03T16:26:24.116Z,2.12
2023-03-03T16:41:29.105Z,2.06
2023-03-03T16:56:34.109Z,2.06
2023-03-03T17:11:39.097Z,2
2023-03-03T17:26:44.102Z,1.9300000000000002
2023-03-03T17:41:49.139Z,1.87
2023-03-03T17:56:54.148Z,1.81
2023-03-03T18:11:59.135Z,1.75
2023-03-03T18:27:04.148Z,1.75
2023-03-03T18:42:09.134Z,1.6800000000000002
2023-03-03T18:57:14.196Z,1.62
2023-03-03T19:12:19.218Z,1.62
2023-03-03T19:27:24.214Z,1.62
2023-03-03T19:42:29.218Z,1.62
2023-03-03T19:57:34.248Z,1.62
2023-03-03T20:12:39.253Z,1.62
2023-03-03T20:27:44.252Z,1.62
2023-03-03T20:42:51.755Z,1.62
2023-03-03T20:57:54.261Z,1.62
2023-03-03T21:12:59.324Z,1.62
2023-03-03T21:28:04.296Z,1.62
2023-03-03T21:43:09.270Z,1.62
2023-03-03T21:58:14.283Z,1.62
2023-03-03T22:13:19.294Z,1.62
2023-03-03T22:28:24.371Z,1.62
2023-03-03T22:43:27.348Z,1.62
2023-03-03T22:58:32.341Z,1.6800000000000002
2023-03-03T23:13:37.380Z,1.6800000000000002
2023-03-03T23:28:42.477Z,1.6800000000000002
2023-03-03T23:43:47.410Z,1.6800000000000002
2023-03-03T23:58:52.372Z,1.6800000000000002
